sensor_id;sensor_type;location;lat;lon;timestamp;P1;durP1;ratioP1;P2;durP2;ratioP2
16820;SDS011;8527;49.740;6.604;2023-11-18T00:03:08;21.73;;;11.48;;
16820;SDS011;8527;49.740;6.604;2023-11-18T00:08:06;20.05;;;11.23;;
16820;SDS011;8527;49.740;6.604;2023-11-18T00:13:07;22.23;;;11.38;;
16820;SDS011;8527;49.740;6.604;2023-11-18T00:18:06;21.58;;;11.88;;
16820;SDS011;8527;49.740;6.604;2023-11-18T00:23:04;25.77;;;11.85;;
16820;SDS011;8527;49.740;6.604;2023-11-18T00:28:03;25.77;;;13.02;;
16820;SDS011;8527;49.740;6.604;2023-11-18T00:33:04;23.80;;;13.02;;
16820;SDS011;8527;49.740;6.604;2023-11-18T00:38:03;23.58;;;12.48;;
16820;SDS011;8527;49.740;6.604;2023-11-18T00:43:03;22.73;;;11.73;;
16820;SDS011;8527;49.740;6.604;2023-11-18T00:48:01;26.77;;;13.18;;
16820;SDS011;8527;49.740;6.604;2023-11-18T00:53:05;24.60;;;13.15;;
16820;SDS011;8527;49.740;6.604;2023-11-18T00:58:07;22.48;;;12.82;;
16820;SDS011;8527;49.740;6.604;2023-11-18T01:03:08;20.10;;;10.77;;
16820;SDS011;8527;49.740;6.604;2023-11-18T01:08:10;17.85;;;9.85;;
16820;SDS011;8527;49.740;6.604;2023-11-18T01:13:14;22.70;;;10.32;;
16820;SDS011;8527;49.740;6.604;2023-11-18T01:18:16;21.33;;;10.65;;
16820;SDS011;8527;49.740;6.604;2023-11-18T01:23:18;23.35;;;11.65;;
16820;SDS011;8527;49.740;6.604;2023-11-18T01:28:16;27.25;;;12.40;;
16820;SDS011;8527;49.740;6.604;2023-11-18T01:33:15;26.38;;;12.77;;
16820;SDS011;8527;49.740;6.604;2023-11-18T01:38:20;27.73;;;12.02;;
16820;SDS011;8527;49.740;6.604;2023-11-18T01:43:21;29.63;;;14.10;;
16820;SDS011;8527;49.740;6.604;2023-11-18T01:48:19;32.90;;;13.88;;
16820;SDS011;8527;49.740;6.604;2023-11-18T01:53:24;28.08;;;13.55;;
16820;SDS011;8527;49.740;6.604;2023-11-18T01:58:24;28.90;;;13.02;;
16820;SDS011;8527;49.740;6.604;2023-11-18T02:03:25;33.83;;;13.85;;
16820;SDS011;8527;49.740;6.604;2023-11-18T02:08:28;27.20;;;11.90;;
16820;SDS011;8527;49.740;6.604;2023-11-18T02:13:30;24.02;;;10.85;;
16820;SDS011;8527;49.740;6.604;2023-11-18T02:18:32;24.02;;;10.93;;
16820;SDS011;8527;49.740;6.604;2023-11-18T02:23:37;28.42;;;12.23;;
16820;SDS011;8527;49.740;6.604;2023-11-18T02:28:38;24.90;;;11.27;;
16820;SDS011;8527;49.740;6.604;2023-11-18T02:33:42;24.05;;;10.35;;
16820;SDS011;8527;49.740;6.604;2023-11-18T02:38:48;23.95;;;9.98;;
16820;SDS011;8527;49.740;6.604;2023-11-18T02:43:52;19.02;;;9.52;;
16820;SDS011;8527;49.740;6.604;2023-11-18T02:48:53;18.63;;;8.75;;
16820;SDS011;8527;49.740;6.604;2023-11-18T02:53:54;17.25;;;8.00;;
16820;SDS011;8527;49.740;6.604;2023-11-18T02:58:56;15.15;;;7.60;;
16820;SDS011;8527;49.740;6.604;2023-11-18T03:03:59;14.48;;;7.63;;
16820;SDS011;8527;49.740;6.604;2023-11-18T03:09:00;18.20;;;7.60;;
16820;SDS011;8527;49.740;6.604;2023-11-18T03:14:05;17.25;;;8.15;;
16820;SDS011;8527;49.740;6.604;2023-11-18T03:19:08;20.20;;;9.05;;
16820;SDS011;8527;49.740;6.604;2023-11-18T03:24:07;16.35;;;8.40;;
16820;SDS011;8527;49.740;6.604;2023-11-18T03:29:15;15.27;;;8.68;;
16820;SDS011;8527;49.740;6.604;2023-11-18T03:34:24;17.55;;;8.40;;
16820;SDS011;8527;49.740;6.604;2023-11-18T03:39:23;17.67;;;8.80;;
16820;SDS011;8527;49.740;6.604;2023-11-18T03:44:25;18.50;;;8.05;;
16820;SDS011;8527;49.740;6.604;2023-11-18T03:49:24;18.70;;;8.35;;
16820;SDS011;8527;49.740;6.604;2023-11-18T03:54:25;21.80;;;7.70;;
16820;SDS011;8527;49.740;6.604;2023-11-18T03:59:29;16.42;;;7.38;;
16820;SDS011;8527;49.740;6.604;2023-11-18T04:04:31;20.08;;;8.02;;
16820;SDS011;8527;49.740;6.604;2023-11-18T04:09:35;23.55;;;8.40;;
16820;SDS011;8527;49.740;6.604;2023-11-18T04:14:41;16.45;;;7.78;;
16820;SDS011;8527;49.740;6.604;2023-11-18T04:19:45;25.30;;;9.27;;
16820;SDS011;8527;49.740;6.604;2023-11-18T04:24:44;20.95;;;8.60;;
16820;SDS011;8527;49.740;6.604;2023-11-18T04:29:45;23.27;;;8.70;;
16820;SDS011;8527;49.740;6.604;2023-11-18T04:34:43;21.35;;;9.18;;
16820;SDS011;8527;49.740;6.604;2023-11-18T04:39:50;22.55;;;8.02;;
16820;SDS011;8527;49.740;6.604;2023-11-18T04:44:53;18.45;;;8.35;;
16820;SDS011;8527;49.740;6.604;2023-11-18T04:49:51;18.10;;;8.45;;
16820;SDS011;8527;49.740;6.604;2023-11-18T04:54:59;17.63;;;7.80;;
16820;SDS011;8527;49.740;6.604;2023-11-18T05:00:07;18.00;;;8.27;;
16820;SDS011;8527;49.740;6.604;2023-11-18T05:05:13;20.08;;;8.35;;
16820;SDS011;8527;49.740;6.604;2023-11-18T05:10:12;14.38;;;6.90;;
16820;SDS011;8527;49.740;6.604;2023-11-18T05:20:22;16.20;;;6.90;;
16820;SDS011;8527;49.740;6.604;2023-11-18T05:25:22;14.05;;;6.40;;
16820;SDS011;8527;49.740;6.604;2023-11-18T05:30:24;13.85;;;7.20;;
16820;SDS011;8527;49.740;6.604;2023-11-18T05:35:22;14.55;;;7.78;;
16820;SDS011;8527;49.740;6.604;2023-11-18T05:40:24;12.57;;;6.40;;
16820;SDS011;8527;49.740;6.604;2023-11-18T05:45:26;12.98;;;6.32;;
16820;SDS011;8527;49.740;6.604;2023-11-18T05:50:49;18.52;;;6.85;;
16820;SDS011;8527;49.740;6.604;2023-11-18T05:55:47;16.63;;;7.03;;
16820;SDS011;8527;49.740;6.604;2023-11-18T06:00:50;11.98;;;6.93;;
16820;SDS011;8527;49.740;6.604;2023-11-18T06:05:55;15.00;;;6.80;;
16820;SDS011;8527;49.740;6.604;2023-11-18T06:11:01;11.50;;;6.90;;
16820;SDS011;8527;49.740;6.604;2023-11-18T06:16:11;16.60;;;7.43;;
16820;SDS011;8527;49.740;6.604;2023-11-18T06:21:18;13.95;;;7.20;;
16820;SDS011;8527;49.740;6.604;2023-11-18T06:26:24;14.50;;;7.13;;
16820;SDS011;8527;49.740;6.604;2023-11-18T06:31:26;16.83;;;7.00;;
16820;SDS011;8527;49.740;6.604;2023-11-18T06:36:24;19.35;;;7.55;;
16820;SDS011;8527;49.740;6.604;2023-11-18T06:41:23;13.38;;;6.80;;
16820;SDS011;8527;49.740;6.604;2023-11-18T06:46:31;16.65;;;6.55;;
16820;SDS011;8527;49.740;6.604;2023-11-18T06:51:37;19.23;;;6.57;;
16820;SDS011;8527;49.740;6.604;2023-11-18T06:56:36;17.58;;;7.07;;
16820;SDS011;8527;49.740;6.604;2023-11-18T07:01:40;16.77;;;7.20;;
16820;SDS011;8527;49.740;6.604;2023-11-18T07:06:42;18.42;;;7.60;;
16820;SDS011;8527;49.740;6.604;2023-11-18T07:11:40;14.55;;;6.90;;
16820;SDS011;8527;49.740;6.604;2023-11-18T07:16:45;17.30;;;7.53;;
16820;SDS011;8527;49.740;6.604;2023-11-18T07:21:44;15.90;;;7.07;;
16820;SDS011;8527;49.740;6.604;2023-11-18T07:26:45;15.90;;;6.93;;
16820;SDS011;8527;49.740;6.604;2023-11-18T07:31:50;16.65;;;7.22;;
16820;SDS011;8527;49.740;6.604;2023-11-18T07:46:56;18.88;;;7.65;;
16820;SDS011;8527;49.740;6.604;2023-11-18T07:51:59;19.00;;;7.82;;
16820;SDS011;8527;49.740;6.604;2023-11-18T07:56:57;23.15;;;8.00;;
16820;SDS011;8527;49.740;6.604;2023-11-18T08:01:58;22.48;;;7.63;;
16820;SDS011;8527;49.740;6.604;2023-11-18T08:07:04;18.00;;;7.28;;
16820;SDS011;8527;49.740;6.604;2023-11-18T08:12:05;18.88;;;7.97;;
16820;SDS011;8527;49.740;6.604;2023-11-18T08:17:07;20.42;;;8.18;;
16820;SDS011;8527;49.740;6.604;2023-11-18T08:22:07;18.92;;;7.93;;
16820;SDS011;8527;49.740;6.604;2023-11-18T08:27:06;17.98;;;7.53;;
16820;SDS011;8527;49.740;6.604;2023-11-18T08:32:08;24.67;;;8.30;;
16820;SDS011;8527;49.740;6.604;2023-11-18T08:37:06;17.73;;;7.45;;
16820;SDS011;8527;49.740;6.604;2023-11-18T08:42:04;15.20;;;7.72;;
16820;SDS011;8527;49.740;6.604;2023-11-18T08:47:04;18.77;;;7.75;;
16820;SDS011;8527;49.740;6.604;2023-11-18T08:52:07;17.42;;;7.38;;
16820;SDS011;8527;49.740;6.604;2023-11-18T08:57:09;19.88;;;7.75;;
16820;SDS011;8527;49.740;6.604;2023-11-18T09:02:21;16.02;;;7.35;;
16820;SDS011;8527;49.740;6.604;2023-11-18T09:07:24;20.13;;;7.53;;
16820;SDS011;8527;49.740;6.604;2023-11-18T09:12:24;17.15;;;7.90;;
16820;SDS011;8527;49.740;6.604;2023-11-18T09:17:25;21.98;;;7.30;;
16820;SDS011;8527;49.740;6.604;2023-11-18T09:22:23;23.98;;;8.50;;
16820;SDS011;8527;49.740;6.604;2023-11-18T09:27:23;18.98;;;7.85;;
16820;SDS011;8527;49.740;6.604;2023-11-18T09:32:27;22.50;;;7.85;;
16820;SDS011;8527;49.740;6.604;2023-11-18T09:37:34;20.05;;;8.18;;
16820;SDS011;8527;49.740;6.604;2023-11-18T09:42:32;20.27;;;7.80;;
16820;SDS011;8527;49.740;6.604;2023-11-18T09:47:36;23.85;;;7.95;;
16820;SDS011;8527;49.740;6.604;2023-11-18T09:52:37;16.45;;;8.07;;
16820;SDS011;8527;49.740;6.604;2023-11-18T09:57:40;19.77;;;7.80;;
16820;SDS011;8527;49.740;6.604;2023-11-18T10:02:45;18.48;;;8.85;;
16820;SDS011;8527;49.740;6.604;2023-11-18T10:07:53;22.58;;;8.02;;
16820;SDS011;8527;49.740;6.604;2023-11-18T10:12:53;20.15;;;8.80;;
16820;SDS011;8527;49.740;6.604;2023-11-18T10:17:58;20.05;;;9.07;;
16820;SDS011;8527;49.740;6.604;2023-11-18T10:23:11;19.83;;;8.45;;
16820;SDS011;8527;49.740;6.604;2023-11-18T10:28:24;23.23;;;8.98;;
16820;SDS011;8527;49.740;6.604;2023-11-18T10:33:30;26.17;;;10.18;;
16820;SDS011;8527;49.740;6.604;2023-11-18T10:38:31;37.22;;;10.68;;
16820;SDS011;8527;49.740;6.604;2023-11-18T10:43:31;21.05;;;9.60;;
16820;SDS011;8527;49.740;6.604;2023-11-18T10:48:33;21.50;;;10.55;;
16820;SDS011;8527;49.740;6.604;2023-11-18T10:53:36;18.60;;;9.40;;
16820;SDS011;8527;49.740;6.604;2023-11-18T10:58:35;21.13;;;9.40;;
16820;SDS011;8527;49.740;6.604;2023-11-18T11:08:59;22.15;;;10.18;;
16820;SDS011;8527;49.740;6.604;2023-11-18T11:14:05;23.92;;;10.55;;
16820;SDS011;8527;49.740;6.604;2023-11-18T11:19:11;33.50;;;11.85;;
16820;SDS011;8527;49.740;6.604;2023-11-18T11:24:20;20.67;;;10.07;;
16820;SDS011;8527;49.740;6.604;2023-11-18T11:29:30;20.70;;;9.13;;
16820;SDS011;8527;49.740;6.604;2023-11-18T11:34:36;19.63;;;9.15;;
16820;SDS011;8527;49.740;6.604;2023-11-18T11:39:39;18.63;;;8.13;;
16820;SDS011;8527;49.740;6.604;2023-11-18T11:44:41;21.67;;;8.68;;
16820;SDS011;8527;49.740;6.604;2023-11-18T11:49:44;19.10;;;8.25;;
16820;SDS011;8527;49.740;6.604;2023-11-18T11:54:48;20.70;;;8.73;;
16820;SDS011;8527;49.740;6.604;2023-11-18T11:59:56;19.95;;;7.78;;
16820;SDS011;8527;49.740;6.604;2023-11-18T12:05:15;17.50;;;7.57;;
16820;SDS011;8527;49.740;6.604;2023-11-18T12:10:14;22.52;;;7.75;;
16820;SDS011;8527;49.740;6.604;2023-11-18T12:15:17;16.30;;;7.78;;
16820;SDS011;8527;49.740;6.604;2023-11-18T12:20:52;18.58;;;8.07;;
16820;SDS011;8527;49.740;6.604;2023-11-18T12:25:57;18.02;;;7.93;;
16820;SDS011;8527;49.740;6.604;2023-11-18T12:31:00;14.80;;;7.40;;
16820;SDS011;8527;49.740;6.604;2023-11-18T12:41:42;19.63;;;7.10;;
16820;SDS011;8527;49.740;6.604;2023-11-18T12:46:49;14.05;;;7.30;;
16820;SDS011;8527;49.740;6.604;2023-11-18T12:51:55;13.98;;;7.53;;
16820;SDS011;8527;49.740;6.604;2023-11-18T12:56:55;12.40;;;6.38;;
16820;SDS011;8527;49.740;6.604;2023-11-18T13:01:54;15.45;;;6.93;;
16820;SDS011;8527;49.740;6.604;2023-11-18T13:07:00;12.52;;;6.15;;
16820;SDS011;8527;49.740;6.604;2023-11-18T13:11:59;12.77;;;6.70;;
16820;SDS011;8527;49.740;6.604;2023-11-18T13:16:59;12.13;;;5.00;;
16820;SDS011;8527;49.740;6.604;2023-11-18T13:22:03;16.50;;;6.25;;
16820;SDS011;8527;49.740;6.604;2023-11-18T13:27:04;13.10;;;5.00;;
16820;SDS011;8527;49.740;6.604;2023-11-18T13:32:04;10.88;;;5.18;;
16820;SDS011;8527;49.740;6.604;2023-11-18T13:37:08;12.35;;;5.38;;
16820;SDS011;8527;49.740;6.604;2023-11-18T13:42:20;11.75;;;4.70;;
16820;SDS011;8527;49.740;6.604;2023-11-18T13:47:21;9.75;;;4.90;;
16820;SDS011;8527;49.740;6.604;2023-11-18T13:52:23;12.07;;;4.97;;
16820;SDS011;8527;49.740;6.604;2023-11-18T13:57:21;9.07;;;4.50;;
16820;SDS011;8527;49.740;6.604;2023-11-18T14:02:20;14.73;;;5.50;;
16820;SDS011;8527;49.740;6.604;2023-11-18T14:07:19;12.75;;;4.82;;
16820;SDS011;8527;49.740;6.604;2023-11-18T14:12:20;11.73;;;5.10;;
16820;SDS011;8527;49.740;6.604;2023-11-18T14:17:22;10.93;;;5.30;;
16820;SDS011;8527;49.740;6.604;2023-11-18T14:22:21;14.00;;;5.22;;
16820;SDS011;8527;49.740;6.604;2023-11-18T14:27:22;15.35;;;5.15;;
16820;SDS011;8527;49.740;6.604;2023-11-18T14:32:20;9.20;;;4.85;;
16820;SDS011;8527;49.740;6.604;2023-11-18T14:37:21;10.15;;;5.03;;
16820;SDS011;8527;49.740;6.604;2023-11-18T14:42:23;14.80;;;5.95;;
16820;SDS011;8527;49.740;6.604;2023-11-18T14:47:21;13.32;;;5.18;;
16820;SDS011;8527;49.740;6.604;2023-11-18T14:52:19;10.50;;;5.47;;
16820;SDS011;8527;49.740;6.604;2023-11-18T14:57:18;10.82;;;5.35;;
16820;SDS011;8527;49.740;6.604;2023-11-18T15:02:21;8.57;;;4.68;;
16820;SDS011;8527;49.740;6.604;2023-11-18T15:07:23;9.25;;;5.07;;
16820;SDS011;8527;49.740;6.604;2023-11-18T15:12:25;9.73;;;4.85;;
16820;SDS011;8527;49.740;6.604;2023-11-18T15:17:24;11.35;;;4.55;;
16820;SDS011;8527;49.740;6.604;2023-11-18T15:22:22;7.97;;;4.53;;
16820;SDS011;8527;49.740;6.604;2023-11-18T15:27:25;10.43;;;4.18;;
16820;SDS011;8527;49.740;6.604;2023-11-18T15:32:26;7.65;;;4.00;;
16820;SDS011;8527;49.740;6.604;2023-11-18T15:37:25;6.10;;;4.00;;
16820;SDS011;8527;49.740;6.604;2023-11-18T15:42:26;5.20;;;3.75;;
16820;SDS011;8527;49.740;6.604;2023-11-18T15:47:28;6.82;;;4.13;;
16820;SDS011;8527;49.740;6.604;2023-11-18T15:52:26;8.13;;;4.57;;
16820;SDS011;8527;49.740;6.604;2023-11-18T15:57:34;7.25;;;4.50;;
16820;SDS011;8527;49.740;6.604;2023-11-18T16:02:35;12.35;;;4.05;;
16820;SDS011;8527;49.740;6.604;2023-11-18T16:07:39;7.32;;;4.40;;
16820;SDS011;8527;49.740;6.604;2023-11-18T16:12:40;8.95;;;4.55;;
16820;SDS011;8527;49.740;6.604;2023-11-18T16:17:39;9.40;;;4.80;;
16820;SDS011;8527;49.740;6.604;2023-11-18T16:22:39;8.93;;;4.20;;
16820;SDS011;8527;49.740;6.604;2023-11-18T16:27:48;9.18;;;4.13;;
16820;SDS011;8527;49.740;6.604;2023-11-18T16:32:47;11.02;;;4.85;;
16820;SDS011;8527;49.740;6.604;2023-11-18T16:37:48;10.10;;;3.97;;
16820;SDS011;8527;49.740;6.604;2023-11-18T16:42:50;7.97;;;4.10;;
16820;SDS011;8527;49.740;6.604;2023-11-18T16:47:50;7.43;;;4.18;;
16820;SDS011;8527;49.740;6.604;2023-11-18T16:52:52;5.85;;;3.70;;
16820;SDS011;8527;49.740;6.604;2023-11-18T16:57:53;5.57;;;4.05;;
16820;SDS011;8527;49.740;6.604;2023-11-18T17:02:54;6.95;;;4.00;;
16820;SDS011;8527;49.740;6.604;2023-11-18T17:07:52;6.72;;;3.45;;
16820;SDS011;8527;49.740;6.604;2023-11-18T17:12:54;7.50;;;4.35;;
16820;SDS011;8527;49.740;6.604;2023-11-18T17:17:56;7.07;;;3.67;;
16820;SDS011;8527;49.740;6.604;2023-11-18T17:22:55;5.55;;;3.20;;
16820;SDS011;8527;49.740;6.604;2023-11-18T17:27:56;6.40;;;3.90;;
16820;SDS011;8527;49.740;6.604;2023-11-18T17:32:59;8.10;;;3.65;;
16820;SDS011;8527;49.740;6.604;2023-11-18T17:37:58;7.10;;;3.58;;
16820;SDS011;8527;49.740;6.604;2023-11-18T17:43:02;8.50;;;3.83;;
16820;SDS011;8527;49.740;6.604;2023-11-18T17:48:04;9.68;;;4.32;;
16820;SDS011;8527;49.740;6.604;2023-11-18T17:53:05;6.97;;;3.88;;
16820;SDS011;8527;49.740;6.604;2023-11-18T17:58:06;7.32;;;3.65;;
16820;SDS011;8527;49.740;6.604;2023-11-18T18:08:10;5.95;;;3.75;;
16820;SDS011;8527;49.740;6.604;2023-11-18T18:13:12;8.30;;;4.40;;
16820;SDS011;8527;49.740;6.604;2023-11-18T18:18:11;8.38;;;4.07;;
16820;SDS011;8527;49.740;6.604;2023-11-18T18:23:09;6.65;;;3.78;;
16820;SDS011;8527;49.740;6.604;2023-11-18T18:28:08;5.70;;;3.35;;
16820;SDS011;8527;49.740;6.604;2023-11-18T18:33:09;6.10;;;3.13;;
16820;SDS011;8527;49.740;6.604;2023-11-18T18:38:11;6.00;;;3.05;;
16820;SDS011;8527;49.740;6.604;2023-11-18T18:43:11;6.30;;;3.30;;
16820;SDS011;8527;49.740;6.604;2023-11-18T18:48:13;5.00;;;3.22;;
16820;SDS011;8527;49.740;6.604;2023-11-18T18:53:13;7.18;;;4.05;;
16820;SDS011;8527;49.740;6.604;2023-11-18T18:58:11;56.15;;;22.80;;
16820;SDS011;8527;49.740;6.604;2023-11-18T19:03:15;7.03;;;4.18;;
16820;SDS011;8527;49.740;6.604;2023-11-18T19:08:14;8.10;;;4.72;;
16820;SDS011;8527;49.740;6.604;2023-11-18T19:13:16;7.10;;;3.20;;
16820;SDS011;8527;49.740;6.604;2023-11-18T19:18:26;5.75;;;3.00;;
16820;SDS011;8527;49.740;6.604;2023-11-18T19:23:28;4.85;;;3.38;;
16820;SDS011;8527;49.740;6.604;2023-11-18T19:28:26;6.63;;;3.72;;
16820;SDS011;8527;49.740;6.604;2023-11-18T19:33:30;7.57;;;4.43;;
16820;SDS011;8527;49.740;6.604;2023-11-18T19:38:31;8.70;;;4.00;;
16820;SDS011;8527;49.740;6.604;2023-11-18T19:43:31;5.45;;;3.60;;
16820;SDS011;8527;49.740;6.604;2023-11-18T19:48:35;9.95;;;5.30;;
16820;SDS011;8527;49.740;6.604;2023-11-18T19:53:34;8.73;;;4.18;;
16820;SDS011;8527;49.740;6.604;2023-11-18T19:58:32;8.05;;;4.40;;
16820;SDS011;8527;49.740;6.604;2023-11-18T20:03:31;12.43;;;5.55;;
16820;SDS011;8527;49.740;6.604;2023-11-18T20:08:32;8.30;;;4.05;;
16820;SDS011;8527;49.740;6.604;2023-11-18T20:13:31;7.72;;;4.38;;
16820;SDS011;8527;49.740;6.604;2023-11-18T20:18:30;6.45;;;3.90;;
16820;SDS011;8527;49.740;6.604;2023-11-18T20:23:28;11.75;;;4.53;;
16820;SDS011;8527;49.740;6.604;2023-11-18T20:28:29;10.18;;;4.50;;
16820;SDS011;8527;49.740;6.604;2023-11-18T20:33:36;5.85;;;3.42;;
16820;SDS011;8527;49.740;6.604;2023-11-18T20:38:35;10.15;;;4.40;;
16820;SDS011;8527;49.740;6.604;2023-11-18T20:43:36;6.00;;;4.07;;
16820;SDS011;8527;49.740;6.604;2023-11-18T20:48:36;7.57;;;3.95;;
16820;SDS011;8527;49.740;6.604;2023-11-18T20:53:35;6.57;;;3.53;;
16820;SDS011;8527;49.740;6.604;2023-11-18T20:58:36;4.53;;;3.30;;
16820;SDS011;8527;49.740;6.604;2023-11-18T21:03:42;4.85;;;3.20;;
16820;SDS011;8527;49.740;6.604;2023-11-18T21:08:42;7.00;;;3.00;;
16820;SDS011;8527;49.740;6.604;2023-11-18T21:13:43;6.00;;;3.05;;
16820;SDS011;8527;49.740;6.604;2023-11-18T21:18:42;3.40;;;2.95;;
16820;SDS011;8527;49.740;6.604;2023-11-18T21:23:40;5.10;;;3.25;;
16820;SDS011;8527;49.740;6.604;2023-11-18T21:28:45;9.05;;;3.25;;
16820;SDS011;8527;49.740;6.604;2023-11-18T21:33:46;3.47;;;2.60;;
16820;SDS011;8527;49.740;6.604;2023-11-18T21:38:44;4.13;;;2.60;;
16820;SDS011;8527;49.740;6.604;2023-11-18T21:43:45;3.55;;;2.40;;
16820;SDS011;8527;49.740;6.604;2023-11-18T21:48:47;3.95;;;2.40;;
16820;SDS011;8527;49.740;6.604;2023-11-18T21:53:46;2.78;;;2.33;;
16820;SDS011;8527;49.740;6.604;2023-11-18T21:58:49;3.83;;;2.33;;
16820;SDS011;8527;49.740;6.604;2023-11-18T22:03:51;2.45;;;2.25;;
16820;SDS011;8527;49.740;6.604;2023-11-18T22:08:50;3.38;;;2.42;;
16820;SDS011;8527;49.740;6.604;2023-11-18T22:13:51;2.63;;;1.92;;
16820;SDS011;8527;49.740;6.604;2023-11-18T22:18:53;2.28;;;2.00;;
16820;SDS011;8527;49.740;6.604;2023-11-18T22:23:52;2.50;;;2.10;;
16820;SDS011;8527;49.740;6.604;2023-11-18T22:28:54;3.22;;;2.42;;
16820;SDS011;8527;49.740;6.604;2023-11-18T22:33:52;3.72;;;2.50;;
16820;SDS011;8527;49.740;6.604;2023-11-18T22:38:51;4.15;;;2.70;;
16820;SDS011;8527;49.740;6.604;2023-11-18T22:43:49;4.20;;;2.45;;
16820;SDS011;8527;49.740;6.604;2023-11-18T22:49:01;2.53;;;2.22;;
16820;SDS011;8527;49.740;6.604;2023-11-18T22:54:00;3.10;;;2.10;;
16820;SDS011;8527;49.740;6.604;2023-11-18T22:59:01;2.38;;;2.00;;
16820;SDS011;8527;49.740;6.604;2023-11-18T23:04:00;4.50;;;2.00;;
16820;SDS011;8527;49.740;6.604;2023-11-18T23:09:06;2.43;;;1.70;;
16820;SDS011;8527;49.740;6.604;2023-11-18T23:14:09;5.00;;;1.50;;
16820;SDS011;8527;49.740;6.604;2023-11-18T23:19:09;4.60;;;1.98;;
16820;SDS011;8527;49.740;6.604;2023-11-18T23:24:10;1.98;;;1.77;;
16820;SDS011;8527;49.740;6.604;2023-11-18T23:29:11;3.33;;;1.70;;
16820;SDS011;8527;49.740;6.604;2023-11-18T23:34:12;2.33;;;1.50;;
16820;SDS011;8527;49.740;6.604;2023-11-18T23:39:11;2.15;;;1.45;;
16820;SDS011;8527;49.740;6.604;2023-11-18T23:44:14;1.20;;;0.95;;
16820;SDS011;8527;49.740;6.604;2023-11-18T23:49:13;2.17;;;1.10;;
16820;SDS011;8527;49.740;6.604;2023-11-18T23:54:14;1.80;;;1.00;;
16820;SDS011;8527;49.740;6.604;2023-11-18T23:59:15;1.10;;;1.00;;
